Time;durP1;ratioP1;P1;durP2;ratioP2;P2;SDS_P1;SDS_P2;PMS_P1;PMS_P2;Temp;Humidity;BMP_temperature;BMP_pressure;BME280_temperature;BME280_humidity;BME280_pressure;Samples;Min_cycle;Max_cycle;Signal;HPM_P1;HPM_P2
2023/05/26 00:00:34;;;;;;;1.23;0.63;;;16.80;99.90;;;;;;5052447;28;20053;-89
2023/05/26 00:03:02;;;;;;;0.25;0.25;;;16.90;99.90;;;;;;5052046;28;20064;-88
2023/05/26 00:05:28;;;;;;;0.52;0.52;;;16.70;99.90;;;;;;5034685;28;20021;-88
2023/05/26 00:07:54;;;;;;;0.43;0.20;;;16.60;99.90;;;;;;5052911;28;20100;-89
2023/05/26 00:10:20;;;;;;;0.52;0.40;;;16.50;99.90;;;;;;5034602;28;20077;-89
2023/05/26 00:12:46;;;;;;;1.75;0.85;;;16.70;99.90;;;;;;5034814;28;20135;-88
2023/05/26 00:15:11;;;;;;;0.28;0.28;;;16.60;99.90;;;;;;5034579;28;20025;-89
2023/05/26 00:17:37;;;;;;;0.57;0.40;;;16.60;99.90;;;;;;5034304;28;20127;-89
2023/05/26 00:20:04;;;;;;;0.00;0.00;;;16.50;99.90;;;;;;5034973;28;20053;-88
2023/05/26 00:22:30;;;;;;;0.20;0.20;;;16.60;99.90;;;;;;5052304;28;20060;-88
2023/05/26 00:24:56;;;;;;;0.20;0.20;;;16.50;99.90;;;;;;5052415;28;20041;-89
2023/05/26 00:27:21;;;;;;;0.10;0.10;;;16.40;99.90;;;;;;5034560;28;20112;-88
2023/05/26 00:29:47;;;;;;;0.32;0.30;;;16.40;99.90;;;;;;5052238;28;20084;-88
2023/05/26 00:32:13;;;;;;;0.30;0.30;;;16.40;99.90;;;;;;5034305;28;20037;-89
2023/05/26 00:34:39;;;;;;;0.20;0.20;;;16.30;99.90;;;;;;5031845;28;20424;-88
2023/05/26 00:37:04;;;;;;;0.52;0.52;;;16.40;99.90;;;;;;5035925;28;20029;-89
2023/05/26 00:39:30;;;;;;;1.50;0.32;;;16.20;99.90;;;;;;5036588;28;20025;-88
2023/05/26 00:41:57;;;;;;;0.20;0.20;;;16.30;99.90;;;;;;5046380;28;20052;-88
2023/05/26 00:44:22;;;;;;;0.22;0.22;;;16.30;99.90;;;;;;5056057;28;20028;-88
2023/05/26 00:46:49;;;;;;;0.25;0.25;;;16.40;99.90;;;;;;5037926;28;20047;-88
2023/05/26 00:49:14;;;;;;;0.10;0.10;;;16.30;99.90;;;;;;5056200;28;20028;-88
2023/05/26 00:51:43;;;;;;;0.30;0.30;;;16.30;99.90;;;;;;5056028;28;20037;-89
2023/05/26 00:54:09;;;;;;;1.00;0.30;;;16.20;99.90;;;;;;5055690;28;20112;-89
2023/05/26 00:56:35;;;;;;;0.13;0.13;;;16.20;99.90;;;;;;5037871;28;20036;-89
2023/05/26 00:59:03;;;;;;;0.08;0.08;;;16.20;99.90;;;;;;5055720;28;20049;-89
2023/05/26 01:01:30;;;;;;;1.00;0.65;;;16.20;99.90;;;;;;5037464;28;20366;-88
2023/05/26 01:03:56;;;;;;;0.43;0.43;;;16.10;99.90;;;;;;5055363;28;20017;-89
2023/05/26 01:06:22;;;;;;;0.52;0.20;;;16.00;99.90;;;;;;5055508;28;20111;-88
2023/05/26 01:08:48;;;;;;;0.10;0.10;;;16.10;99.90;;;;;;5055544;28;20029;-89
2023/05/26 01:11:38;;;;;;;0.85;0.40;;;16.00;99.90;;;;;;5055500;28;20025;-88
2023/05/26 01:14:11;;;;;;;0.60;0.15;;;15.90;99.90;;;;;;5036962;28;21003;-89
2023/05/26 01:16:45;;;;;;;0.10;0.10;;;15.90;99.90;;;;;;5055537;28;20041;-88
2023/05/26 01:19:30;;;;;;;0.10;0.10;;;16.00;99.90;;;;;;5037742;28;20055;-88
2023/05/26 01:22:08;;;;;;;1.00;0.65;;;16.00;99.90;;;;;;5055230;28;20024;-88
2023/05/26 01:24:55;;;;;;;0.10;0.10;;;15.90;99.90;;;;;;5037277;28;20025;-89
2023/05/26 01:27:36;;;;;;;0.35;0.20;;;15.70;99.90;;;;;;5037472;28;20091;-88
2023/05/26 01:30:02;;;;;;;0.10;0.10;;;15.80;99.90;;;;;;5054824;28;20056;-89
2023/05/26 01:32:28;;;;;;;0.10;0.10;;;15.70;99.90;;;;;;5055253;28;20064;-89
2023/05/26 01:34:53;;;;;;;0.25;0.25;;;15.60;99.90;;;;;;5054885;28;20037;-89
2023/05/26 01:37:19;;;;;;;0.20;0.20;;;15.60;99.90;;;;;;5054731;28;20045;-88
2023/05/26 01:39:45;;;;;;;0.00;0.00;;;15.60;99.90;;;;;;5055482;28;20177;-88
2023/05/26 01:42:29;;;;;;;0.17;0.17;;;15.50;99.90;;;;;;5055094;28;20036;-88
2023/05/26 01:45:03;;;;;;;0.10;0.10;;;15.50;99.90;;;;;;5054875;28;20124;-88
2023/05/26 01:47:31;;;;;;;0.10;0.10;;;15.40;99.90;;;;;;5054700;28;20096;-88
2023/05/26 01:50:01;;;;;;;0.65;0.43;;;15.30;99.90;;;;;;5054909;28;20082;-88
2023/05/26 01:52:27;;;;;;;0.20;0.20;;;15.30;99.90;;;;;;5037078;28;20033;-89
2023/05/26 01:55:01;;;;;;;0.10;0.10;;;15.30;99.90;;;;;;5054971;28;20017;-89
2023/05/26 01:57:28;;;;;;;2.40;0.20;;;15.30;99.90;;;;;;5036332;28;20138;-89
2023/05/26 01:59:55;;;;;;;0.52;0.43;;;15.30;99.90;;;;;;5036669;28;20513;-88
2023/05/26 02:02:21;;;;;;;0.47;0.47;;;15.30;99.90;;;;;;5054461;28;20433;-89
2023/05/26 02:04:46;;;;;;;0.70;0.28;;;15.30;99.90;;;;;;5036478;28;20025;-89
2023/05/26 02:07:12;;;;;;;0.00;0.00;;;15.30;99.90;;;;;;5036594;28;20374;-89
2023/05/26 02:09:38;;;;;;;0.10;0.10;;;15.30;99.90;;;;;;5036595;28;20045;-88
2023/05/26 02:12:06;;;;;;;0.28;0.13;;;15.30;99.90;;;;;;5035966;28;20040;-88
2023/05/26 02:14:31;;;;;;;0.10;0.10;;;15.30;99.90;;;;;;5054175;28;20024;-88
2023/05/26 02:16:57;;;;;;;0.10;0.10;;;15.30;99.90;;;;;;5054721;28;20111;-89
2023/05/26 02:19:23;;;;;;;0.00;0.00;;;15.20;99.90;;;;;;5054336;28;20025;-89
2023/05/26 02:21:48;;;;;;;0.10;0.10;;;15.30;99.90;;;;;;5036240;28;20021;-89
2023/05/26 02:24:14;;;;;;;0.52;0.30;;;15.30;99.90;;;;;;5036571;28;20035;-89
2023/05/26 02:26:40;;;;;;;0.10;0.10;;;15.20;99.90;;;;;;5053633;28;20017;-88
2023/05/26 02:29:05;;;;;;;0.10;0.10;;;15.30;99.90;;;;;;5054175;28;20029;-89
2023/05/26 02:31:33;;;;;;;0.10;0.10;;;15.10;99.90;;;;;;5054337;28;20021;-88
2023/05/26 02:33:58;;;;;;;0.30;0.30;;;15.10;99.90;;;;;;5053988;28;20057;-89
2023/05/26 02:36:25;;;;;;;0.10;0.10;;;15.10;99.90;;;;;;5032821;28;20060;-89
2023/05/26 02:38:50;;;;;;;0.15;0.15;;;14.90;99.90;;;;;;5033830;28;20021;-88
2023/05/26 02:41:16;;;;;;;0.05;0.05;;;14.90;99.90;;;;;;5035537;28;20116;-89
2023/05/26 02:43:41;;;;;;;0.65;0.43;;;14.80;99.90;;;;;;5036127;28;20021;-89
2023/05/26 02:46:07;;;;;;;0.00;0.00;;;14.80;99.90;;;;;;5036090;28;20033;-89
2023/05/26 02:48:33;;;;;;;0.10;0.10;;;14.80;99.90;;;;;;5036386;28;20430;-89
2023/05/26 02:50:59;;;;;;;0.95;0.77;;;14.70;99.90;;;;;;5053482;28;20021;-88
2023/05/26 02:53:25;;;;;;;0.13;0.13;;;14.60;99.90;;;;;;5053451;28;20458;-88
2023/05/26 02:55:51;;;;;;;0.10;0.10;;;14.70;99.90;;;;;;5035466;28;20075;-89
2023/05/26 02:58:16;;;;;;;0.43;0.30;;;14.60;99.90;;;;;;5035009;28;20600;-89
2023/05/26 03:00:42;;;;;;;0.47;0.47;;;14.70;99.90;;;;;;5053781;28;20044;-89
2023/05/26 03:03:08;;;;;;;0.47;0.45;;;14.70;99.90;;;;;;5035680;28;20037;-89
2023/05/26 03:05:33;;;;;;;0.50;0.50;;;14.70;99.90;;;;;;5053490;28;20029;-89
2023/05/26 03:07:59;;;;;;;0.10;0.10;;;14.60;99.90;;;;;;5035562;28;20032;-89
2023/05/26 03:10:25;;;;;;;0.00;0.00;;;14.60;99.90;;;;;;5035269;28;20036;-89
2023/05/26 03:12:50;;;;;;;0.22;0.22;;;14.60;99.90;;;;;;5053284;28;20036;-89
2023/05/26 03:15:16;;;;;;;0.10;0.10;;;14.50;99.90;;;;;;5053555;28;20048;-89
2023/05/26 03:17:41;;;;;;;0.10;0.10;;;14.70;99.90;;;;;;5035648;28;20033;-88
2023/05/26 03:20:08;;;;;;;0.00;0.00;;;14.60;99.90;;;;;;5035612;28;20029;-88
2023/05/26 03:22:33;;;;;;;0.10;0.10;;;14.40;99.90;;;;;;5035121;28;20119;-89
2023/05/26 03:24:59;;;;;;;0.30;0.30;;;14.50;99.90;;;;;;5052741;28;20053;-89
2023/05/26 03:27:26;;;;;;;0.00;0.00;;;14.70;99.90;;;;;;5053302;28;20486;-88
2023/05/26 03:29:52;;;;;;;0.13;0.13;;;14.60;99.90;;;;;;5035819;28;20024;-89
2023/05/26 03:32:18;;;;;;;0.05;0.05;;;14.60;99.90;;;;;;5035239;28;20037;-89
2023/05/26 03:34:44;;;;;;;0.10;0.10;;;14.50;99.90;;;;;;5035065;28;20064;-89
2023/05/26 03:37:11;;;;;;;0.10;0.10;;;14.50;99.90;;;;;;5052914;28;20052;-88
2023/05/26 03:39:37;;;;;;;0.20;0.20;;;14.50;99.90;;;;;;5052937;28;20041;-88
2023/05/26 03:42:03;;;;;;;0.70;0.70;;;14.40;99.90;;;;;;5035482;28;20025;-89
2023/05/26 03:44:29;;;;;;;0.20;0.20;;;14.20;99.90;;;;;;5052911;28;20389;-89
2023/05/26 03:46:55;;;;;;;0.00;0.00;;;14.10;99.90;;;;;;5053129;28;20025;-88
2023/05/26 03:49:20;;;;;;;0.10;0.10;;;14.10;99.90;;;;;;5053079;28;20023;-88
2023/05/26 03:51:46;;;;;;;0.28;0.28;;;14.10;99.90;;;;;;5053280;28;20116;-89
2023/05/26 03:54:11;;;;;;;0.13;0.13;;;14.00;99.90;;;;;;5052687;28;20021;-88
2023/05/26 03:56:37;;;;;;;0.98;0.65;;;14.10;99.90;;;;;;5052737;28;20166;-89
2023/05/26 03:59:03;;;;;;;0.40;0.40;;;14.20;99.90;;;;;;5035145;28;20215;-89
2023/05/26 04:01:29;;;;;;;0.30;0.30;;;14.00;99.90;;;;;;5052853;28;20116;-88
2023/05/26 04:03:55;;;;;;;0.00;0.00;;;14.10;99.90;;;;;;5052723;28;20104;-89
2023/05/26 04:06:22;;;;;;;0.05;0.05;;;14.00;99.90;;;;;;5034908;28;20116;-88
2023/05/26 04:08:48;;;;;;;0.13;0.08;;;14.00;99.90;;;;;;5036351;28;20052;-91
2023/05/26 04:11:16;;;;;;;0.10;0.10;;;13.90;99.90;;;;;;5056783;28;20036;-88
2023/05/26 04:13:41;;;;;;;0.00;0.00;;;14.00;99.90;;;;;;5056606;28;20116;-89
2023/05/26 04:16:07;;;;;;;0.15;0.15;;;14.10;99.90;;;;;;5039076;28;20111;-89
2023/05/26 04:18:40;;;;;;;0.10;0.10;;;14.10;99.90;;;;;;5056784;28;20056;-88
2023/05/26 04:21:07;;;;;;;0.00;0.00;;;14.10;99.90;;;;;;5056615;28;20052;-89
2023/05/26 04:23:32;;;;;;;0.75;0.63;;;14.10;99.90;;;;;;5056131;28;20031;-88
2023/05/26 04:25:58;;;;;;;0.20;0.20;;;14.10;99.90;;;;;;5038624;28;20433;-88
2023/05/26 04:28:24;;;;;;;0.52;0.52;;;14.20;99.90;;;;;;5038724;28;20489;-88
2023/05/26 04:30:50;;;;;;;0.80;0.52;;;14.10;99.90;;;;;;5056183;28;20025;-88
2023/05/26 04:33:15;;;;;;;0.00;0.00;;;14.10;99.90;;;;;;5038691;28;20501;-88
2023/05/26 04:35:44;;;;;;;0.20;0.20;;;14.20;99.90;;;;;;5056139;28;20028;-88
2023/05/26 04:38:12;;;;;;;0.10;0.10;;;14.30;99.90;;;;;;5055537;28;20033;-88
2023/05/26 04:40:38;;;;;;;0.10;0.10;;;14.40;99.90;;;;;;5055818;28;20032;-89
2023/05/26 04:43:04;;;;;;;0.52;0.52;;;14.20;99.90;;;;;;5055937;28;20068;-89
2023/05/26 04:45:30;;;;;;;0.20;0.20;;;14.20;99.90;;;;;;5038224;28;20025;-88
2023/05/26 04:47:56;;;;;;;0.40;0.40;;;14.20;99.90;;;;;;5038554;28;20474;-89
2023/05/26 04:50:23;;;;;;;0.55;0.55;;;14.10;99.90;;;;;;5056013;28;20029;-88
2023/05/26 04:52:49;;;;;;;2.53;0.73;;;14.00;99.90;;;;;;5055325;28;20048;-88
2023/05/26 04:55:15;;;;;;;0.47;0.47;;;14.10;99.90;;;;;;5055816;28;20025;-88
2023/05/26 04:57:43;;;;;;;0.22;0.22;;;14.20;99.90;;;;;;5037876;28;20119;-88
2023/05/26 05:00:13;;;;;;;0.10;0.10;;;14.10;99.90;;;;;;5055352;28;20061;-88
2023/05/26 05:02:39;;;;;;;0.28;0.28;;;14.10;99.90;;;;;;5055208;28;20029;-88
2023/05/26 05:05:06;;;;;;;0.35;0.35;;;14.30;99.90;;;;;;5055567;28;20029;-88
2023/05/26 05:07:32;;;;;;;0.20;0.20;;;14.40;99.90;;;;;;5054925;28;20021;-88
2023/05/26 05:09:58;;;;;;;0.10;0.10;;;14.30;99.90;;;;;;5054568;28;20033;-88
2023/05/26 05:12:24;;;;;;;0.20;0.20;;;14.30;99.90;;;;;;5037571;28;20069;-88
2023/05/26 05:14:50;;;;;;;0.35;0.35;;;14.40;99.90;;;;;;5037529;28;20036;-89
2023/05/26 05:17:17;;;;;;;0.22;0.22;;;14.50;99.90;;;;;;5037545;28;20115;-88
2023/05/26 05:19:42;;;;;;;0.10;0.10;;;14.60;99.90;;;;;;5055686;28;20103;-88
2023/05/26 05:22:08;;;;;;;1.70;0.43;;;14.70;99.90;;;;;;5036431;28;20552;-88
2023/05/26 05:24:33;;;;;;;1.40;0.57;;;14.50;99.90;;;;;;5052400;28;20060;-85
2023/05/26 05:27:00;;;;;;;0.10;0.10;;;14.60;99.90;;;;;;5053660;28;20029;-85
2023/05/26 05:29:25;;;;;;;0.20;0.20;;;15.00;99.90;;;;;;5034362;28;20534;-85
2023/05/26 05:31:51;;;;;;;0.15;0.15;;;15.30;99.90;;;;;;5049298;28;20067;-85
2023/05/26 05:34:17;;;;;;;0.32;0.32;;;15.40;99.90;;;;;;5053711;28;20174;-85
2023/05/26 05:36:42;;;;;;;1.15;0.70;;;15.40;99.90;;;;;;5032894;28;20071;-85
2023/05/26 05:39:08;;;;;;;0.40;0.20;;;15.40;99.90;;;;;;5050845;28;20029;-85
2023/05/26 05:41:34;;;;;;;0.40;0.20;;;15.50;99.90;;;;;;5053825;28;20009;-85
2023/05/26 05:44:00;;;;;;;0.55;0.20;;;15.50;99.90;;;;;;5056087;28;20029;-87
2023/05/26 05:46:27;;;;;;;0.50;0.50;;;15.70;99.90;;;;;;5053980;28;20039;-84
2023/05/26 05:48:53;;;;;;;0.10;0.10;;;15.70;99.90;;;;;;5052851;28;20025;-83
2023/05/26 05:51:18;;;;;;;0.30;0.30;;;15.90;99.90;;;;;;5035747;28;20381;-83
2023/05/26 05:53:44;;;;;;;0.45;0.20;;;16.00;99.90;;;;;;5053919;28;20041;-82
2023/05/26 05:56:10;;;;;;;0.10;0.10;;;15.90;99.90;;;;;;5053753;28;20100;-83
2023/05/26 05:58:36;;;;;;;0.32;0.32;;;16.00;99.90;;;;;;5053524;28;20589;-83
2023/05/26 06:01:01;;;;;;;0.20;0.20;;;16.10;99.90;;;;;;5053603;28;20393;-83
2023/05/26 06:03:27;;;;;;;0.20;0.20;;;16.10;99.90;;;;;;5053483;28;20028;-83
2023/05/26 06:05:53;;;;;;;0.10;0.10;;;16.10;99.90;;;;;;5053220;28;20025;-83
2023/05/26 06:08:19;;;;;;;0.00;0.00;;;16.30;99.90;;;;;;5047962;28;20117;-83
2023/05/26 06:10:44;;;;;;;0.43;0.20;;;16.30;99.90;;;;;;5033836;28;20585;-83
2023/05/26 06:13:10;;;;;;;0.20;0.20;;;16.50;99.90;;;;;;5033169;28;20402;-83
2023/05/26 06:15:36;;;;;;;0.38;0.38;;;16.60;99.90;;;;;;5033448;28;20029;-83
2023/05/26 06:18:01;;;;;;;0.10;0.10;;;16.50;99.90;;;;;;5033139;28;20029;-83
2023/05/26 06:20:27;;;;;;;0.45;0.40;;;16.60;99.90;;;;;;5033527;28;20026;-83
2023/05/26 06:22:52;;;;;;;0.47;0.35;;;16.70;99.90;;;;;;5033274;28;20446;-83
2023/05/26 06:25:18;;;;;;;0.80;0.63;;;16.80;99.90;;;;;;5033167;28;20485;-83
2023/05/26 06:27:44;;;;;;;0.47;0.30;;;16.90;99.90;;;;;;5033121;28;20112;-83
2023/05/26 06:30:10;;;;;;;1.30;0.95;;;17.00;99.90;;;;;;5033165;28;20053;-83
2023/05/26 06:32:35;;;;;;;0.03;0.03;;;17.10;99.90;;;;;;5031889;28;20575;-83
2023/05/26 06:35:01;;;;;;;0.10;0.10;;;17.10;99.90;;;;;;5033018;28;20025;-83
2023/05/26 06:37:27;;;;;;;0.32;0.32;;;17.20;99.90;;;;;;5032841;28;20037;-82
2023/05/26 06:39:52;;;;;;;0.45;0.45;;;17.20;99.90;;;;;;5032813;28;20092;-83
2023/05/26 06:42:18;;;;;;;0.10;0.10;;;17.30;99.90;;;;;;5046242;28;20051;-82
2023/05/26 06:44:44;;;;;;;0.10;0.10;;;17.40;99.90;;;;;;5052801;28;20391;-82
2023/05/26 06:47:09;;;;;;;0.20;0.20;;;17.50;99.90;;;;;;5052445;28;20047;-83
2023/05/26 06:49:35;;;;;;;0.35;0.35;;;17.50;99.90;;;;;;5052840;28;20021;-83
2023/05/26 06:52:01;;;;;;;0.45;0.20;;;17.60;99.90;;;;;;5052540;28;20029;-83
2023/05/26 06:54:26;;;;;;;0.30;0.30;;;17.60;99.90;;;;;;5052729;28;20033;-83
2023/05/26 06:56:52;;;;;;;0.10;0.10;;;17.60;99.90;;;;;;5052570;28;20035;-83
2023/05/26 06:59:18;;;;;;;2.90;0.35;;;17.60;99.90;;;;;;5052664;28;20053;-83
2023/05/26 07:01:43;;;;;;;0.13;0.13;;;17.60;99.90;;;;;;5052535;28;20107;-83
2023/05/26 07:04:10;;;;;;;0.20;0.20;;;17.70;99.90;;;;;;5052201;28;20108;-83
2023/05/26 07:06:35;;;;;;;0.30;0.30;;;17.70;99.90;;;;;;5052378;28;20087;-83
2023/05/26 07:09:01;;;;;;;0.50;0.40;;;17.70;99.90;;;;;;5034790;28;20029;-83
2023/05/26 07:11:27;;;;;;;0.57;0.55;;;17.80;99.90;;;;;;5034457;28;20090;-83
2023/05/26 07:13:52;;;;;;;0.40;0.40;;;17.80;99.90;;;;;;5052134;28;20083;-83
2023/05/26 07:16:18;;;;;;;0.32;0.32;;;17.90;99.90;;;;;;5051861;28;20033;-83
2023/05/26 07:18:44;;;;;;;0.20;0.20;;;18.00;99.90;;;;;;5052612;28;20025;-83
2023/05/26 07:21:09;;;;;;;0.20;0.20;;;18.10;99.90;;;;;;5052271;28;20025;-83
2023/05/26 07:23:35;;;;;;;3.40;1.20;;;18.10;99.90;;;;;;5052223;28;20044;-83
2023/05/26 07:26:01;;;;;;;0.20;0.20;;;18.20;99.90;;;;;;5052048;28;20504;-83
2023/05/26 07:28:27;;;;;;;0.68;0.28;;;18.30;99.90;;;;;;5052132;28;20072;-82
2023/05/26 07:30:52;;;;;;;0.10;0.10;;;18.40;99.90;;;;;;5051738;28;20535;-83
2023/05/26 07:33:18;;;;;;;0.15;0.15;;;18.40;99.90;;;;;;5034424;28;20067;-83
2023/05/26 07:35:45;;;;;;;0.40;0.40;;;18.50;99.90;;;;;;5051948;28;20457;-83
2023/05/26 07:38:10;;;;;;;0.40;0.40;;;18.50;99.90;;;;;;5052187;28;20025;-83
2023/05/26 07:40:36;;;;;;;0.47;0.35;;;18.50;99.90;;;;;;5051899;28;20036;-83
2023/05/26 07:43:03;;;;;;;1.73;0.60;;;18.50;99.90;;;;;;5051949;28;20108;-83
2023/05/26 07:45:29;;;;;;;0.20;0.20;;;18.60;99.90;;;;;;5051461;28;20064;-83
2023/05/26 07:47:55;;;;;;;0.20;0.20;;;18.70;99.90;;;;;;5051875;28;20017;-83
2023/05/26 07:50:20;;;;;;;0.30;0.30;;;18.80;99.90;;;;;;5052231;28;20033;-83
2023/05/26 07:52:46;;;;;;;0.88;0.77;;;18.80;99.90;;;;;;5051914;28;20040;-83
2023/05/26 07:55:12;;;;;;;0.38;0.38;;;18.90;99.90;;;;;;5051728;28;20049;-83
2023/05/26 07:57:38;;;;;;;0.10;0.10;;;19.00;99.90;;;;;;5051836;28;20075;-83
2023/05/26 08:00:05;;;;;;;0.28;0.28;;;19.00;99.90;;;;;;5051522;28;20529;-83
2023/05/26 08:02:30;;;;;;;0.20;0.20;;;19.10;99.90;;;;;;5051755;28;20049;-84
2023/05/26 08:04:56;;;;;;;0.20;0.20;;;19.00;99.90;;;;;;5051809;28;20064;-83
2023/05/26 08:07:22;;;;;;;0.63;0.45;;;19.10;99.90;;;;;;5051633;28;20447;-83
2023/05/26 08:09:48;;;;;;;0.28;0.25;;;19.20;99.90;;;;;;5051655;28;20025;-83
2023/05/26 08:12:13;;;;;;;0.20;0.20;;;19.30;99.90;;;;;;5051596;28;20040;-83
2023/05/26 08:14:39;;;;;;;0.20;0.20;;;19.40;99.90;;;;;;5051094;28;20420;-83
2023/05/26 08:17:05;;;;;;;0.20;0.20;;;19.40;99.90;;;;;;5051853;28;20127;-83
2023/05/26 08:19:31;;;;;;;0.20;0.20;;;19.50;99.90;;;;;;5051929;28;20456;-83
2023/05/26 08:21:57;;;;;;;0.25;0.25;;;19.50;99.90;;;;;;5051583;28;20021;-83
2023/05/26 08:24:24;;;;;;;0.20;0.20;;;19.60;99.90;;;;;;5051645;28;20490;-83
2023/05/26 08:26:50;;;;;;;0.65;0.45;;;19.60;99.90;;;;;;5051481;28;20082;-83
2023/05/26 08:29:16;;;;;;;1.00;0.25;;;19.60;99.90;;;;;;5051069;28;20037;-83
2023/05/26 08:31:42;;;;;;;0.65;0.50;;;19.80;99.90;;;;;;5051808;28;20013;-83
2023/05/26 08:34:08;;;;;;;1.15;0.70;;;19.70;99.90;;;;;;5051362;28;20037;-83
2023/05/26 08:36:33;;;;;;;0.98;0.70;;;19.90;99.90;;;;;;5051291;28;20024;-83
2023/05/26 08:38:59;;;;;;;0.60;0.30;;;20.00;99.90;;;;;;5051446;28;20155;-83
2023/05/26 08:41:32;;;;;;;0.20;0.20;;;20.00;99.90;;;;;;5051076;28;20032;-83
2023/05/26 08:44:01;;;;;;;0.30;0.30;;;20.00;99.90;;;;;;5051229;28;20055;-82
2023/05/26 08:46:28;;;;;;;0.35;0.35;;;20.20;99.90;;;;;;5051298;28;20054;-83
2023/05/26 08:48:54;;;;;;;0.65;0.50;;;20.30;99.90;;;;;;5032007;28;20410;-83
2023/05/26 08:51:20;;;;;;;0.25;0.25;;;20.20;99.90;;;;;;5051580;28;20021;-83
2023/05/26 08:53:48;;;;;;;0.63;0.55;;;20.10;99.90;;;;;;5051240;28;20505;-83
2023/05/26 08:56:14;;;;;;;0.75;0.65;;;20.20;99.90;;;;;;5052719;28;20067;-83
2023/05/26 08:58:43;;;;;;;0.30;0.30;;;20.20;99.90;;;;;;5054520;28;20076;-83
2023/05/26 09:01:09;;;;;;;1.25;1.00;;;20.40;99.90;;;;;;5054684;28;20104;-83
2023/05/26 09:03:35;;;;;;;1.00;0.45;;;20.70;99.90;;;;;;5054735;28;20083;-83
2023/05/26 09:06:01;;;;;;;0.40;0.40;;;20.60;99.90;;;;;;5054589;28;20017;-83
2023/05/26 09:08:28;;;;;;;0.55;0.35;;;20.60;99.90;;;;;;5052072;28;20082;-85
2023/05/26 09:10:54;;;;;;;0.50;0.50;;;20.80;99.90;;;;;;5043591;28;20079;-83
2023/05/26 09:13:21;;;;;;;2.92;0.85;;;20.80;99.90;;;;;;5053607;28;20037;-83
2023/05/26 09:15:52;;;;;;;0.60;0.60;;;21.00;99.90;;;;;;5054494;28;20074;-83
2023/05/26 09:18:19;;;;;;;0.38;0.38;;;21.00;99.90;;;;;;5053728;28;20025;-83
2023/05/26 09:20:49;;;;;;;0.08;0.08;;;20.80;99.90;;;;;;5053310;28;20520;-83
2023/05/26 09:23:23;;;;;;;0.13;0.13;;;21.00;99.90;;;;;;5053581;28;20024;-82
2023/05/26 09:25:51;;;;;;;6.57;1.33;;;21.00;99.90;;;;;;5054307;28;20040;-82
2023/05/26 09:28:16;;;;;;;0.22;0.22;;;21.10;99.90;;;;;;5053476;28;20398;-83
2023/05/26 09:30:44;;;;;;;0.25;0.25;;;21.10;99.90;;;;;;5053078;28;20025;-83
2023/05/26 09:33:17;;;;;;;0.10;0.10;;;21.00;99.90;;;;;;5052475;28;20068;-84
2023/05/26 09:35:45;;;;;;;0.40;0.40;;;21.00;99.90;;;;;;5053563;28;20570;-84
2023/05/26 09:38:14;;;;;;;0.10;0.10;;;21.10;99.90;;;;;;5035587;28;20400;-83
2023/05/26 09:40:49;;;;;;;0.40;0.40;;;21.10;99.90;;;;;;5053556;28;20473;-84
2023/05/26 09:43:19;;;;;;;0.45;0.45;;;21.20;99.90;;;;;;5052446;28;20108;-83
2023/05/26 09:45:45;;;;;;;0.47;0.47;;;21.20;99.90;;;;;;5053334;28;20039;-83
2023/05/26 09:48:11;;;;;;;0.50;0.25;;;21.20;99.90;;;;;;5048030;28;20100;-84
2023/05/26 09:50:38;;;;;;;0.52;0.50;;;21.20;99.90;;;;;;5033854;28;20487;-84
2023/05/26 09:53:09;;;;;;;0.10;0.10;;;21.40;99.90;;;;;;5042370;28;20438;-86
2023/05/26 09:55:36;;;;;;;0.30;0.30;;;21.60;99.90;;;;;;5047614;28;20381;-84
2023/05/26 09:58:06;;;;;;;0.60;0.55;;;21.60;99.90;;;;;;5035747;28;20158;-84
2023/05/26 10:00:38;;;;;;;2.08;1.27;;;21.60;99.90;;;;;;5039586;28;20041;-84
2023/05/26 10:03:05;;;;;;;1.60;0.75;;;21.60;99.90;;;;;;5033559;28;20045;-84
2023/05/26 10:05:40;;;;;;;0.00;0.00;;;21.60;99.90;;;;;;5034019;28;20020;-85
2023/05/26 10:08:06;;;;;;;0.00;0.00;;;21.90;99.90;;;;;;5049115;28;20032;-85
2023/05/26 10:10:33;;;;;;;0.82;0.77;;;22.10;99.90;;;;;;5053432;28;20036;-85
2023/05/26 10:13:01;;;;;;;0.38;0.38;;;22.40;99.90;;;;;;5047958;28;20037;-82
2023/05/26 10:15:28;;;;;;;0.10;0.10;;;22.40;99.90;;;;;;5048563;28;20557;-85
2023/05/26 10:17:54;;;;;;;0.38;0.20;;;22.50;99.90;;;;;;5034910;28;20393;-84
2023/05/26 10:20:20;;;;;;;0.20;0.20;;;22.30;99.90;;;;;;5052799;28;20499;-83
2023/05/26 10:22:58;;;;;;;0.63;0.63;;;22.20;99.90;;;;;;5052797;28;20039;-83
2023/05/26 10:25:34;;;;;;;0.52;0.32;;;22.30;99.90;;;;;;5047738;28;20029;-84
2023/05/26 10:28:13;;;;;;;0.70;0.57;;;22.30;99.90;;;;;;5053112;28;20096;-84
2023/05/26 10:30:41;;;;;;;1.00;0.43;;;22.40;99.90;;;;;;5051954;28;20039;-85
2023/05/26 10:33:11;;;;;;;0.57;0.17;;;22.40;99.90;;;;;;5052469;28;20044;-85
2023/05/26 10:35:38;;;;;;;0.50;0.50;;;22.50;99.90;;;;;;5052849;28;20036;-82
2023/05/26 10:38:05;;;;;;;0.15;0.15;;;22.30;99.90;;;;;;5052140;28;20108;-85
2023/05/26 10:40:33;;;;;;;0.45;0.45;;;22.40;99.90;;;;;;5047745;28;20020;-84
2023/05/26 10:43:23;;;;;;;0.50;0.50;;;22.50;99.90;;;;;;5052448;28;20036;-84
2023/05/26 10:45:52;;;;;;;0.95;0.38;;;22.80;99.90;;;;;;5036111;28;20040;-84
2023/05/26 10:48:18;;;;;;;0.30;0.30;;;22.80;99.90;;;;;;5033009;28;20033;-85
2023/05/26 10:50:59;;;;;;;0.20;0.20;;;22.70;99.90;;;;;;5032752;28;20025;-85
2023/05/26 10:53:40;;;;;;;0.98;0.52;;;22.90;99.90;;;;;;5052324;28;20501;-84
2023/05/26 10:56:08;;;;;;;0.30;0.30;;;22.80;99.90;;;;;;5051669;28;20049;-82
2023/05/26 10:58:36;;;;;;;0.73;0.30;;;23.00;99.90;;;;;;5046287;28;20041;-83
2023/05/26 11:01:06;;;;;;;0.40;0.20;;;22.90;99.90;;;;;;5045131;28;20513;-85
2023/05/26 11:03:36;;;;;;;0.40;0.40;;;23.20;99.90;;;;;;5050050;28;20480;-90
2023/05/26 11:06:04;;;;;;;0.10;0.10;;;23.50;99.90;;;;;;5049703;28;20025;-88
2023/05/26 11:08:37;;;;;;;0.75;0.30;;;23.60;99.90;;;;;;5051040;28;20033;-88
2023/05/26 11:11:05;;;;;;;0.65;0.65;;;23.40;99.90;;;;;;5050952;28;20025;-87
2023/05/26 11:13:41;;;;;;;0.52;0.52;;;23.20;99.90;;;;;;5050536;28;20136;-84
2023/05/26 11:16:26;;;;;;;0.20;0.20;;;23.40;99.90;;;;;;5051936;28;20028;-83
2023/05/26 11:18:57;;;;;;;2.70;0.85;;;23.60;99.90;;;;;;5033002;28;20029;-85
2023/05/26 11:21:29;;;;;;;0.50;0.50;;;23.60;99.90;;;;;;5037531;28;20397;-86
2023/05/26 11:23:57;;;;;;;0.52;0.50;;;23.50;99.90;;;;;;5042916;28;20029;-85
2023/05/26 11:26:24;;;;;;;0.47;0.38;;;23.50;99.90;;;;;;5032813;28;20063;-85
2023/05/26 11:28:50;;;;;;;0.63;0.63;;;23.50;99.90;;;;;;5052113;28;20527;-85
2023/05/26 11:31:18;;;;;;;0.50;0.50;;;23.60;99.90;;;;;;5052468;28;20021;-85
2023/05/26 11:33:45;;;;;;;0.10;0.10;;;23.60;99.90;;;;;;5052058;28;20428;-85
2023/05/26 11:36:15;;;;;;;0.40;0.38;;;23.70;99.90;;;;;;5052167;28;20465;-85
2023/05/26 11:38:43;;;;;;;1.63;0.65;;;23.70;99.90;;;;;;5051590;28;20025;-85
2023/05/26 11:41:10;;;;;;;0.38;0.38;;;24.00;99.90;;;;;;5052140;28;20036;-85
2023/05/26 11:43:37;;;;;;;1.13;0.55;;;24.10;99.90;;;;;;5039958;28;20029;-85
2023/05/26 11:46:11;;;;;;;0.85;0.50;;;24.30;99.90;;;;;;5031899;28;20079;-85
2023/05/26 11:48:39;;;;;;;0.98;0.70;;;24.50;99.90;;;;;;5032103;28;20036;-85
2023/05/26 11:51:08;;;;;;;0.40;0.40;;;24.40;99.90;;;;;;5014201;28;20052;-85
2023/05/26 11:53:34;;;;;;;0.25;0.22;;;24.70;99.90;;;;;;5031477;28;20029;-85
2023/05/26 11:56:21;;;;;;;0.57;0.20;;;25.10;99.90;;;;;;5031887;28;20032;-85
2023/05/26 11:58:48;;;;;;;0.20;0.20;;;25.20;99.90;;;;;;5031848;28;20046;-85
2023/05/26 12:01:15;;;;;;;0.65;0.65;;;25.30;99.90;;;;;;5031813;28;20072;-85
2023/05/26 12:03:45;;;;;;;0.52;0.50;;;25.20;99.90;;;;;;5031982;28;20021;-85
2023/05/26 12:06:19;;;;;;;0.47;0.40;;;25.40;99.90;;;;;;5032153;28;20029;-85
2023/05/26 12:08:49;;;;;;;0.65;0.47;;;25.40;99.90;;;;;;5031998;28;20557;-85
2023/05/26 12:11:17;;;;;;;1.27;0.40;;;25.50;99.90;;;;;;5031800;28;20112;-84
2023/05/26 12:13:43;;;;;;;0.55;0.55;;;25.60;99.90;;;;;;5037906;28;20052;-85
2023/05/26 12:16:40;;;;;;;0.30;0.30;;;25.90;99.90;;;;;;5052023;28;20025;-86
2023/05/26 12:19:08;;;;;;;0.10;0.10;;;26.10;99.90;;;;;;5035657;28;20037;-85
2023/05/26 12:21:45;;;;;;;0.47;0.45;;;26.10;99.90;;;;;;5051219;28;20151;-85
2023/05/26 12:24:12;;;;;;;0.38;0.25;;;26.60;99.90;;;;;;5052000;28;20024;-85
2023/05/26 12:26:38;;;;;;;0.30;0.30;;;26.90;99.90;;;;;;5051446;28;20071;-84
2023/05/26 12:29:22;;;;;;;0.73;0.47;;;27.10;99.90;;;;;;5051548;28;20543;-86
2023/05/26 12:31:50;;;;;;;1.08;1.00;;;27.40;99.90;;;;;;5053797;28;20177;-85
2023/05/26 12:34:19;;;;;;;0.20;0.20;;;27.80;99.90;;;;;;5055345;28;20116;-85
2023/05/26 12:36:45;;;;;;;0.63;0.63;;;28.00;99.90;;;;;;5055249;28;20032;-85
2023/05/26 12:39:13;;;;;;;0.28;0.28;;;28.00;99.90;;;;;;5055265;28;20036;-85
2023/05/26 12:41:42;;;;;;;0.22;0.22;;;28.00;99.90;;;;;;5055031;28;20096;-85
2023/05/26 12:44:09;;;;;;;0.28;0.28;;;27.90;99.90;;;;;;5040312;28;20021;-86
2023/05/26 12:46:35;;;;;;;0.40;0.35;;;27.80;99.90;;;;;;5035262;28;20021;-86
2023/05/26 12:49:01;;;;;;;0.30;0.30;;;28.00;99.90;;;;;;5035150;28;20026;-85